Time;durP1;ratioP1;P1;durP2;ratioP2;P2;SDS_P1;SDS_P2;PMS_P1;PMS_P2;Temp;Humidity;BMP_temperature;BMP_pressure;BME280_temperature;BME280_humidity;BME280_pressure;Samples;Min_cycle;Max_cycle;Signal;HPM_P1;HPM_P2
2023/11/02 00:00:30;;;;;;;;;;;;;;;14.99;66.97;99549.84;5014257;28;815;-63
2023/11/02 00:02:57;;;;;;;;;;;;;;;15.11;67.10;99548.34;5014084;28;1134;-62
2023/11/02 00:05:47;;;;;;;;;;;;;;;15.10;66.44;99549.56;5014198;28;851;-63
2023/11/02 00:08:16;;;;;;;;;;;;;;;15.05;66.17;99548.09;4986059;28;1221;-62
2023/11/02 00:10:42;;;;;;;;;;;;;;;15.04;65.40;99543.75;5014003;28;827;-62
2023/11/02 00:13:17;;;;;;;;;;;;;;;15.01;64.34;99541.06;5013971;28;831;-63
2023/11/02 00:15:47;;;;;;;;;;;;;;;14.96;64.38;99536.03;5013872;28;834;-63
2023/11/02 00:18:14;;;;;;;;;;;;;;;14.90;64.46;99536.56;5013797;28;1890;-63
2023/11/02 00:20:40;;;;;;;;;;;;;;;14.91;63.36;99531.78;5013698;28;951;-63
2023/11/02 00:23:07;;;;;;;;;;;;;;;14.92;62.29;99529.78;5013576;28;1172;-63
2023/11/02 00:25:44;;;;;;;;;;;;;;;14.86;62.32;99529.53;5013649;28;886;-63
2023/11/02 00:28:11;;;;;;;;;;;;;;;14.76;61.52;99520.25;5013816;28;858;-63
2023/11/02 00:30:39;;;;;;;;;;;;;;;14.73;61.15;99521.13;5013803;28;862;-62
2023/11/02 00:33:06;;;;;;;;;;;;;;;14.69;60.45;99523.22;5013619;28;823;-63
2023/11/02 00:35:33;;;;;;;;;;;;;;;14.75;59.26;99535.38;5013384;28;840;-63
2023/11/02 00:37:59;;;;;;;;;;;;;;;14.88;57.99;99533.44;5013506;28;1914;-63
2023/11/02 00:40:26;;;;;;;;;;;;;;;14.90;58.82;99536.56;5013673;28;835;-63
2023/11/02 00:42:53;;;;;;;;;;;;;;;14.66;59.82;99527.66;5013370;28;803;-63
2023/11/02 00:45:20;;;;;;;;;;;;;;;14.79;57.08;99524.19;5012964;28;806;-63
2023/11/02 00:47:47;;;;;;;;;;;;;;;14.96;58.58;99528.47;5013134;28;889;-63
2023/11/02 00:50:33;;;;;;;;;;;;;;;14.97;63.03;99529.25;5013228;28;922;-63
2023/11/02 00:52:59;;;;;;;;;;;;;;;14.78;67.18;99531.72;5013281;28;878;-63
2023/11/02 00:55:32;;;;;;;;;;;;;;;14.54;70.56;99525.56;5013719;28;819;-63
2023/11/02 00:58:02;;;;;;;;;;;;;;;14.32;72.22;99516.97;5013027;28;1894;-63
2023/11/02 01:00:54;;;;;;;;;;;;;;;14.20;73.38;99521.22;5013304;28;839;-63
2023/11/02 01:03:21;;;;;;;;;;;;;;;14.06;75.23;99507.66;5006343;28;1433;-63
2023/11/02 01:05:49;;;;;;;;;;;;;;;13.97;75.94;99505.50;5012897;28;833;-63
2023/11/02 01:08:15;;;;;;;;;;;;;;;13.91;76.86;99506.44;5012970;28;843;-63
2023/11/02 01:10:42;;;;;;;;;;;;;;;13.86;77.26;99502.97;5012819;28;832;-63
2023/11/02 01:13:10;;;;;;;;;;;;;;;13.88;77.49;99497.75;5012902;28;834;-63
2023/11/02 01:16:00;;;;;;;;;;;;;;;13.81;77.90;99491.59;5012771;28;858;-63
2023/11/02 01:18:27;;;;;;;;;;;;;;;13.73;79.66;99490.97;5012676;28;1978;-63
2023/11/02 01:20:59;;;;;;;;;;;;;;;13.76;80.80;99484.56;5012665;28;1098;-63
2023/11/02 01:23:27;;;;;;;;;;;;;;;14.02;74.03;99485.53;5012642;28;1437;-62
2023/11/02 01:25:54;;;;;;;;;;;;;;;14.59;68.62;99477.78;5012791;28;890;-63
2023/11/02 01:28:22;;;;;;;;;;;;;;;14.70;69.83;99483.03;5012680;28;877;-63
2023/11/02 01:31:04;;;;;;;;;;;;;;;14.55;72.42;99476.28;5012686;28;803;-62
2023/11/02 01:33:37;;;;;;;;;;;;;;;14.33;75.02;99473.28;5012398;28;839;-63
2023/11/02 01:36:04;;;;;;;;;;;;;;;14.15;77.17;99476.50;5012770;28;842;-63
2023/11/02 01:38:32;;;;;;;;;;;;;;;14.00;79.36;99478.88;5012756;28;1981;-63
2023/11/02 01:41:05;;;;;;;;;;;;;;;13.91;80.32;99484.22;5012341;28;917;-63
2023/11/02 01:43:37;;;;;;;;;;;;;;;13.91;79.77;99487.00;5012455;28;796;-63
2023/11/02 01:46:07;;;;;;;;;;;;;;;13.86;80.94;99483.53;5012390;28;803;-63
2023/11/02 01:48:44;;;;;;;;;;;;;;;13.78;82.04;99482.13;5012296;28;847;-63
2023/11/02 01:51:17;;;;;;;;;;;;;;;13.76;81.53;99484.56;5012239;28;803;-63
2023/11/02 01:53:49;;;;;;;;;;;;;;;13.99;76.64;99472.50;5012296;28;835;-63
2023/11/02 01:56:28;;;;;;;;;;;;;;;14.00;77.38;99476.09;5012196;28;954;-63
2023/11/02 02:02:16;;;;;;;;;;;;;;;13.43;82.09;99472.59;5012215;28;624;-63
2023/11/02 02:04:45;;;;;;;;;;;;;;;13.27;83.13;99479.66;4994370;28;1297;-62
2023/11/02 02:07:12;;;;;;;;;;;;;;;13.13;84.60;99481.94;5012397;28;875;-62
2023/11/02 02:09:43;;;;;;;;;;;;;;;13.07;84.93;99474.09;5012325;28;829;-63
2023/11/02 02:12:28;;;;;;;;;;;;;;;13.04;85.20;99474.19;5012088;28;838;-63
2023/11/02 02:15:08;;;;;;;;;;;;;;;12.94;86.63;99473.19;5012132;28;814;-63
2023/11/02 02:17:43;;;;;;;;;;;;;;;12.84;87.20;99472.19;5011935;28;1932;-62
2023/11/02 02:20:13;;;;;;;;;;;;;;;12.75;88.37;99463.66;5012072;28;926;-62
2023/11/02 02:22:57;;;;;;;;;;;;;;;12.65;89.55;99459.88;4991012;28;1289;-63
2023/11/02 02:25:41;;;;;;;;;;;;;;;12.59;90.46;99469.13;4992495;28;881;-63
2023/11/02 02:28:26;;;;;;;;;;;;;;;12.56;90.87;99454.09;4992301;28;842;-62
2023/11/02 02:30:52;;;;;;;;;;;;;;;12.56;91.37;99448.56;4992320;28;851;-62
2023/11/02 02:33:29;;;;;;;;;;;;;;;12.56;91.83;99445.00;4992254;28;842;-63
2023/11/02 02:36:01;;;;;;;;;;;;;;;12.51;92.43;99459.38;4992315;28;862;-62
2023/11/02 02:38:39;;;;;;;;;;;;;;;12.45;93.42;99454.28;4992207;28;1914;-62
2023/11/02 02:41:08;;;;;;;;;;;;;;;12.39;94.36;99449.66;4992236;28;819;-62
2023/11/02 02:43:36;;;;;;;;;;;;;;;12.34;95.14;99452.94;4992361;28;877;-62
2023/11/02 02:46:03;;;;;;;;;;;;;;;12.34;95.45;99445.41;4992471;28;803;-62
2023/11/02 02:48:30;;;;;;;;;;;;;;;12.44;95.41;99451.97;4992374;28;811;-63
2023/11/02 02:51:02;;;;;;;;;;;;;;;12.53;94.70;99448.63;4992208;28;910;-63
2023/11/02 02:53:31;;;;;;;;;;;;;;;12.59;94.31;99450.50;4992195;28;1324;-63
2023/11/02 02:56:00;;;;;;;;;;;;;;;12.64;93.89;99449.22;4992080;28;806;-63
2023/11/02 02:58:27;;;;;;;;;;;;;;;12.68;93.25;99441.59;4992097;28;1949;-63
2023/11/02 03:00:54;;;;;;;;;;;;;;;12.70;92.94;99447.50;4991935;28;890;-63
2023/11/02 03:03:23;;;;;;;;;;;;;;;12.73;92.98;99446.66;4991996;28;838;-63
2023/11/02 03:05:50;;;;;;;;;;;;;;;12.73;93.11;99435.56;4991952;28;819;-62
2023/11/02 03:08:18;;;;;;;;;;;;;;;12.72;93.03;99436.78;4991990;28;906;-63
2023/11/02 03:10:45;;;;;;;;;;;;;;;12.71;92.99;99434.41;4995421;28;843;-63
2023/11/02 03:13:16;;;;;;;;;;;;;;;12.67;93.33;99423.41;4995555;28;917;-63
2023/11/02 03:15:44;;;;;;;;;;;;;;;12.57;94.02;99421.63;4995545;28;835;-63
2023/11/02 03:18:13;;;;;;;;;;;;;;;12.44;95.88;99449.97;4995306;28;1890;-63
2023/11/02 03:20:43;;;;;;;;;;;;;;;12.35;97.67;99465.56;4995556;28;959;-63
2023/11/02 03:23:19;;;;;;;;;;;;;;;12.28;98.68;99466.47;5005212;28;1330;-62
2023/11/02 03:26:02;;;;;;;;;;;;;;;11.87;100.00;99461.22;5014903;28;898;-62
2023/11/02 03:28:40;;;;;;;;;;;;;;;11.08;100.00;99454.00;5014945;28;826;-61
2023/11/02 03:31:25;;;;;;;;;;;;;;;10.62;100.00;99458.84;5014796;28;842;-61
2023/11/02 03:34:07;;;;;;;;;;;;;;;10.34;100.00;99455.19;5014822;28;863;-60
2023/11/02 03:37:08;;;;;;;;;;;;;;;10.21;100.00;99441.06;5014611;28;849;-60
2023/11/02 03:39:43;;;;;;;;;;;;;;;10.17;100.00;99426.50;4966021;28;1227;-62
2023/11/02 03:42:09;;;;;;;;;;;;;;;10.27;100.00;99416.56;4997106;28;1272;-61
2023/11/02 03:44:53;;;;;;;;;;;;;;;10.32;100.00;99434.69;5014540;28;795;-61
2023/11/02 03:47:26;;;;;;;;;;;;;;;10.41;100.00;99454.31;5014592;28;813;-60
2023/11/02 03:50:07;;;;;;;;;;;;;;;10.55;100.00;99456.94;5014342;28;886;-60
2023/11/02 03:52:53;;;;;;;;;;;;;;;10.59;100.00;99445.88;5014344;28;942;-60
2023/11/02 03:55:30;;;;;;;;;;;;;;;10.52;100.00;99443.97;5014473;28;1189;-60
2023/11/02 03:58:02;;;;;;;;;;;;;;;10.48;100.00;99429.41;5014225;28;1885;-60
2023/11/02 04:00:32;;;;;;;;;;;;;;;10.53;100.00;99428.94;5014306;28;907;-60
2023/11/02 04:03:01;;;;;;;;;;;;;;;10.59;100.00;99416.25;5014397;28;818;-59
2023/11/02 04:05:28;;;;;;;;;;;;;;;10.63;100.00;99417.00;5014079;28;906;-59
2023/11/02 04:08:03;;;;;;;;;;;;;;;10.67;100.00;99410.63;5014112;28;810;-60
2023/11/02 04:10:34;;;;;;;;;;;;;;;10.71;100.00;99406.66;5014186;28;807;-59
2023/11/02 04:13:03;;;;;;;;;;;;;;;10.79;100.00;99408.09;5013968;28;810;-59
2023/11/02 04:15:31;;;;;;;;;;;;;;;10.96;100.00;99402.78;5014195;28;1044;-59
2023/11/02 04:17:58;;;;;;;;;;;;;;;11.08;100.00;99399.47;5013773;28;1890;-59
2023/11/02 04:20:27;;;;;;;;;;;;;;;11.03;100.00;99399.91;5012849;28;977;-59
2023/11/02 04:22:54;;;;;;;;;;;;;;;10.94;100.00;99405.94;5013554;28;1230;-59
2023/11/02 04:25:20;;;;;;;;;;;;;;;10.93;100.00;99398.88;5013587;28;854;-59
2023/11/02 04:27:47;;;;;;;;;;;;;;;10.94;100.00;99402.41;5013746;28;835;-59
2023/11/02 04:30:17;;;;;;;;;;;;;;;10.96;100.00;99400.03;5013650;28;873;-60
2023/11/02 04:32:44;;;;;;;;;;;;;;;10.99;100.00;99396.44;5013528;28;877;-60
2023/11/02 04:35:10;;;;;;;;;;;;;;;11.00;100.00;99382.19;5013538;28;823;-60
2023/11/02 04:37:37;;;;;;;;;;;;;;;11.02;100.00;99392.81;5013494;28;1906;-60
2023/11/02 04:40:04;;;;;;;;;;;;;;;11.09;100.00;99387.19;4995912;28;1295;-60
2023/11/02 04:42:30;;;;;;;;;;;;;;;11.18;100.00;99384.72;5013716;28;898;-61
2023/11/02 04:44:57;;;;;;;;;;;;;;;11.22;100.00;99390.19;5013426;28;819;-61
2023/11/02 04:47:24;;;;;;;;;;;;;;;11.25;100.00;99381.06;5013240;28;838;-62
2023/11/02 04:49:51;;;;;;;;;;;;;;;11.32;100.00;99377.41;5013314;28;843;-62
2023/11/02 04:52:18;;;;;;;;;;;;;;;11.39;100.00;99382.81;5013240;28;893;-63
2023/11/02 04:54:45;;;;;;;;;;;;;;;11.49;100.00;99390.19;5013187;28;909;-63
2023/11/02 04:57:11;;;;;;;;;;;;;;;11.53;100.00;99388.16;5013096;28;1961;-62
2023/11/02 04:59:44;;;;;;;;;;;;;;;11.60;100.00;99390.78;5013180;28;875;-63
2023/11/02 05:02:11;;;;;;;;;;;;;;;11.60;100.00;99390.78;5013119;28;931;-63
2023/11/02 05:04:38;;;;;;;;;;;;;;;11.57;100.00;99385.34;5013412;28;831;-63
2023/11/02 05:07:05;;;;;;;;;;;;;;;11.52;100.00;99385.78;5013063;28;1322;-63
2023/11/02 05:09:31;;;;;;;;;;;;;;;11.53;100.00;99390.13;5013638;28;752;-63
2023/11/02 05:11:58;;;;;;;;;;;;;;;11.56;100.00;99392.81;5013326;28;1227;-63
2023/11/02 05:14:25;;;;;;;;;;;;;;;11.48;100.00;99396.13;5012874;28;837;-63
2023/11/02 05:16:51;;;;;;;;;;;;;;;11.37;100.00;99391.56;5012832;28;882;-63
2023/11/02 05:19:18;;;;;;;;;;;;;;;11.40;100.00;99398.25;5011413;28;1205;-63
2023/11/02 05:21:44;;;;;;;;;;;;;;;11.39;100.00;99403.00;5012955;28;853;-63
2023/11/02 05:24:11;;;;;;;;;;;;;;;11.40;100.00;99403.78;5012485;28;1369;-63
2023/11/02 05:26:39;;;;;;;;;;;;;;;11.44;100.00;99396.97;5012721;28;871;-63
2023/11/02 05:29:06;;;;;;;;;;;;;;;11.50;100.00;99397.31;5012736;28;878;-63
2023/11/02 05:31:33;;;;;;;;;;;;;;;11.58;100.00;99409.81;5012255;28;980;-63
2023/11/02 05:33:59;;;;;;;;;;;;;;;11.68;100.00;99415.63;5012431;28;834;-63
2023/11/02 05:36:26;;;;;;;;;;;;;;;11.83;100.00;99422.47;5012530;28;791;-63
2023/11/02 05:38:52;;;;;;;;;;;;;;;11.94;100.00;99406.50;5012323;28;1907;-63
2023/11/02 05:41:20;;;;;;;;;;;;;;;11.90;100.00;99407.75;5012446;28;878;-63
2023/11/02 05:43:46;;;;;;;;;;;;;;;11.91;100.00;99403.81;5012370;28;839;-63
2023/11/02 05:46:12;;;;;;;;;;;;;;;11.91;100.00;99407.34;5012317;28;854;-63
2023/11/02 05:48:39;;;;;;;;;;;;;;;11.91;100.00;99401.03;5012317;28;851;-63
2023/11/02 05:51:06;;;;;;;;;;;;;;;11.94;100.00;99412.03;5012183;28;878;-63
2023/11/02 05:53:33;;;;;;;;;;;;;;;12.03;100.00;99414.25;5012381;28;831;-62
2023/11/02 05:56:00;;;;;;;;;;;;;;;12.17;100.00;99432.63;5012211;28;822;-63
2023/11/02 05:58:26;;;;;;;;;;;;;;;12.25;100.00;99426.56;5012290;28;1886;-63
2023/11/02 06:00:54;;;;;;;;;;;;;;;12.33;100.00;99435.53;5012347;28;886;-63
2023/11/02 06:03:21;;;;;;;;;;;;;;;12.38;100.00;99442.56;5012149;28;898;-63
2023/11/02 06:05:48;;;;;;;;;;;;;;;12.41;100.00;99434.16;5012078;28;846;-63
2023/11/02 06:08:15;;;;;;;;;;;;;;;12.44;100.00;99430.56;5012098;28;909;-63
2023/11/02 06:10:42;;;;;;;;;;;;;;;12.50;100.00;99410.66;5010701;28;1205;-63
2023/11/02 06:13:08;;;;;;;;;;;;;;;12.62;100.00;99412.81;5011959;28;823;-62
2023/11/02 06:15:36;;;;;;;;;;;;;;;12.87;100.00;99415.88;5012358;28;918;-63
2023/11/02 06:18:02;;;;;;;;;;;;;;;13.06;100.00;99413.50;5011851;28;1886;-62
2023/11/02 06:20:29;;;;;;;;;;;;;;;13.21;100.00;99403.66;5011983;28;1000;-63
2023/11/02 06:22:56;;;;;;;;;;;;;;;13.31;100.00;99406.66;5011611;28;1384;-62
2023/11/02 06:25:24;;;;;;;;;;;;;;;13.35;100.00;99404.59;5011984;28;843;-62
2023/11/02 06:27:50;;;;;;;;;;;;;;;13.45;100.00;99398.00;5011791;28;911;-62
2023/11/02 06:30:16;;;;;;;;;;;;;;;13.53;100.00;99406.94;5011804;28;856;-62
2023/11/02 06:32:43;;;;;;;;;;;;;;;13.65;100.00;99426.47;5012129;28;823;-62
2023/11/02 06:35:10;;;;;;;;;;;;;;;13.76;100.00;99425.44;5011835;28;829;-62
2023/11/02 06:37:56;;;;;;;;;;;;;;;13.86;100.00;99429.97;5011852;28;1906;-62
2023/11/02 06:40:24;;;;;;;;;;;;;;;13.91;100.00;99418.31;5011803;28;890;-62
2023/11/02 06:42:52;;;;;;;;;;;;;;;13.82;100.00;99409.81;5011789;28;878;-62
2023/11/02 06:45:18;;;;;;;;;;;;;;;13.56;100.00;99397.75;5014950;28;874;-62
2023/11/02 06:47:45;;;;;;;;;;;;;;;13.19;100.00;99392.22;5014386;28;1239;-62
2023/11/02 06:50:12;;;;;;;;;;;;;;;13.00;100.00;99379.94;5015555;28;803;-61
2023/11/02 06:52:38;;;;;;;;;;;;;;;12.86;100.00;99371.91;5015497;28;870;-62
2023/11/02 06:55:06;;;;;;;;;;;;;;;12.79;100.00;99369.28;5015339;28;841;-62
2023/11/02 06:57:32;;;;;;;;;;;;;;;12.75;100.00;99371.34;5015731;28;1957;-62
2023/11/02 06:59:59;;;;;;;;;;;;;;;12.75;100.00;99365.81;5015174;28;982;-62
2023/11/02 07:02:26;;;;;;;;;;;;;;;12.79;100.00;99361.75;5015392;28;851;-61
2023/11/02 07:04:57;;;;;;;;;;;;;;;12.77;100.00;99355.84;5015213;28;831;-61
2023/11/02 07:07:24;;;;;;;;;;;;;;;12.76;100.00;99348.75;5015147;28;973;-60
2023/11/02 07:09:51;;;;;;;;;;;;;;;12.79;100.00;99355.44;5015291;28;877;-61
2023/11/02 07:12:18;;;;;;;;;;;;;;;12.81;100.00;99366.88;5015085;28;887;-61
2023/11/02 07:14:46;;;;;;;;;;;;;;;12.88;100.00;99363.94;5015151;28;905;-61
2023/11/02 07:17:14;;;;;;;;;;;;;;;12.90;100.00;99361.53;5014903;28;2005;-61
2023/11/02 07:19:40;;;;;;;;;;;;;;;12.96;100.00;99365.34;5014985;28;931;-61
2023/11/02 07:22:07;;;;;;;;;;;;;;;12.99;100.00;99369.25;5014892;28;1400;-62
2023/11/02 07:24:34;;;;;;;;;;;;;;;13.02;100.00;99365.66;5014849;28;882;-62
2023/11/02 07:27:00;;;;;;;;;;;;;;;13.04;100.00;99366.00;5014899;28;879;-61
2023/11/02 07:29:27;;;;;;;;;;;;;;;13.06;100.00;99361.56;5014556;28;833;-62
2023/11/02 07:31:53;;;;;;;;;;;;;;;13.19;100.00;99374.78;5014829;28;979;-62
2023/11/02 07:34:20;;;;;;;;;;;;;;;13.31;100.00;99376.13;5014661;28;963;-62
2023/11/02 07:36:45;;;;;;;;;;;;;;;13.24;100.00;99369.50;5014572;28;812;-63
2023/11/02 07:39:12;;;;;;;;;;;;;;;13.23;100.00;99356.06;5014429;28;1911;-63
2023/11/02 07:41:39;;;;;;;;;;;;;;;13.31;100.00;99354.69;5014409;28;827;-63
2023/11/02 07:44:06;;;;;;;;;;;;;;;13.41;100.00;99345.34;5014236;28;855;-63
2023/11/02 07:46:33;;;;;;;;;;;;;;;13.52;100.00;99335.97;5014254;28;857;-63
2023/11/02 07:48:59;;;;;;;;;;;;;;;13.66;100.00;99333.63;5014524;28;818;-62
2023/11/02 07:51:26;;;;;;;;;;;;;;;13.73;100.00;99329.88;5014106;28;963;-63
2023/11/02 07:53:52;;;;;;;;;;;;;;;13.82;100.00;99343.94;5014142;28;870;-63
2023/11/02 07:56:19;;;;;;;;;;;;;;;13.99;100.00;99346.69;5014012;28;874;-64
2023/11/02 07:58:46;;;;;;;;;;;;;;;14.19;100.00;99357.69;5014052;28;1882;-64
2023/11/02 08:01:16;;;;;;;;;;;;;;;14.30;100.00;99361.75;5013972;28;882;-64
2023/11/02 08:03:42;;;;;;;;;;;;;;;14.42;100.00;99365.81;5013898;28;806;-65
2023/11/02 08:06:09;;;;;;;;;;;;;;;14.50;100.00;99367.13;5013855;28;878;-65
2023/11/02 08:08:37;;;;;;;;;;;;;;;14.53;100.00;99370.25;5013763;28;839;-65
2023/11/02 08:11:04;;;;;;;;;;;;;;;14.54;100.00;99383.72;5012474;28;1316;-65
2023/11/02 08:13:31;;;;;;;;;;;;;;;14.48;100.00;99377.91;5013732;28;969;-65
2023/11/02 08:15:57;;;;;;;;;;;;;;;14.48;100.00;99377.16;5013720;28;808;-65
2023/11/02 08:18:24;;;;;;;;;;;;;;;14.52;100.00;99380.63;5013605;28;1961;-66
2023/11/02 08:20:50;;;;;;;;;;;;;;;14.55;100.00;99367.81;5013598;28;933;-66
2023/11/02 08:23:17;;;;;;;;;;;;;;;14.65;100.00;99361.22;5013306;28;1455;-66
2023/11/02 08:25:45;;;;;;;;;;;;;;;14.73;100.00;99362.56;5013526;28;799;-65
2023/11/02 08:28:12;;;;;;;;;;;;;;;14.69;100.00;99359.13;5013614;28;882;-65
2023/11/02 08:30:39;;;;;;;;;;;;;;;14.66;100.00;99357.22;5013399;28;866;-65
2023/11/02 08:33:08;;;;;;;;;;;;;;;14.63;100.00;99356.09;5013368;28;819;-65
2023/11/02 08:35:35;;;;;;;;;;;;;;;14.77;100.00;99354.91;5013335;28;835;-65
2023/11/02 08:38:02;;;;;;;;;;;;;;;14.92;100.00;99360.06;5013180;28;1977;-66
2023/11/02 08:40:28;;;;;;;;;;;;;;;15.10;100.00;99363.06;5011971;28;1521;-66
2023/11/02 08:42:55;;;;;;;;;;;;;;;15.22;100.00;99361.53;5013195;28;862;-65
2023/11/02 08:45:21;;;;;;;;;;;;;;;15.30;100.00;99360.09;5013214;28;834;-65
2023/11/02 08:47:48;;;;;;;;;;;;;;;15.36;100.00;99351.94;5013150;28;835;-66
